Time;durP1;ratioP1;P1;durP2;ratioP2;P2;SDS_P1;SDS_P2;PMS_P1;PMS_P2;Temp;Humidity;BMP_temperature;BMP_pressure;BME280_temperature;BME280_humidity;BME280_pressure;Samples;Min_cycle;Max_cycle;Signal;HPM_P1;HPM_P2
2022/01/08 06:00:52;;;;;;;1.00;0.87;;;4.00;97.20;;;;;;1675398;29;20732;-85
2022/01/08 06:01:43;;;;;;;1.15;0.80;;;4.00;97.20;;;;;;1675034;29;20229;-84
2022/01/08 06:02:35;;;;;;;1.10;0.70;;;4.00;97.20;;;;;;1675315;29;20199;-85
2022/01/08 06:03:27;;;;;;;0.80;0.80;;;4.00;97.20;;;;;;1675775;29;20229;-85
2022/01/08 06:04:17;;;;;;;0.93;0.70;;;4.00;97.20;;;;;;1675102;29;20217;-85
2022/01/08 06:05:10;;;;;;;1.63;0.90;;;4.00;97.20;;;;;;1675894;29;20212;-85
2022/01/08 06:06:01;;;;;;;0.98;0.82;;;4.00;97.20;;;;;;1675525;29;20712;-85
2022/01/08 06:06:53;;;;;;;1.30;1.20;;;4.10;97.20;;;;;;1675545;29;20677;-85
2022/01/08 06:07:43;;;;;;;1.05;0.70;;;4.10;97.20;;;;;;1675293;29;20740;-85
2022/01/08 06:08:35;;;;;;;1.00;0.90;;;4.10;97.20;;;;;;1675494;29;20681;-85
2022/01/08 06:09:26;;;;;;;2.65;0.98;;;4.10;97.20;;;;;;1675340;29;20202;-85
2022/01/08 06:10:18;;;;;;;0.93;0.80;;;4.10;97.20;;;;;;1675132;29;20208;-85
2022/01/08 06:11:09;;;;;;;0.80;0.80;;;4.10;97.20;;;;;;1675634;29;20462;-85
2022/01/08 06:12:01;;;;;;;1.10;0.80;;;4.10;97.20;;;;;;1675269;29;20208;-85
2022/01/08 06:12:53;;;;;;;1.58;0.70;;;4.10;97.20;;;;;;1675592;29;20713;-85
2022/01/08 06:13:44;;;;;;;1.00;0.73;;;4.10;97.20;;;;;;1675461;29;20206;-85
2022/01/08 06:14:35;;;;;;;1.23;0.80;;;4.10;97.20;;;;;;1675531;29;20257;-85
2022/01/08 06:15:27;;;;;;;1.10;0.80;;;4.10;97.20;;;;;;1675469;29;20209;-86
2022/01/08 06:16:19;;;;;;;1.30;0.70;;;4.10;97.20;;;;;;1675215;29;20670;-86
2022/01/08 06:17:11;;;;;;;0.80;0.70;;;4.10;97.20;;;;;;1675195;29;20209;-86
2022/01/08 06:18:01;;;;;;;0.80;0.70;;;4.10;97.20;;;;;;1675236;29;20573;-85
2022/01/08 06:18:53;;;;;;;1.43;0.80;;;4.10;97.20;;;;;;1675394;29;20285;-85
2022/01/08 06:19:44;;;;;;;1.00;0.65;;;4.10;97.20;;;;;;1675430;29;20233;-85
2022/01/08 06:20:36;;;;;;;0.77;0.60;;;4.10;97.20;;;;;;1675258;29;20222;-85
2022/01/08 06:21:26;;;;;;;1.45;0.70;;;4.10;97.20;;;;;;1674814;29;20458;-85
2022/01/08 06:22:18;;;;;;;1.27;0.60;;;4.10;97.20;;;;;;1675260;29;20684;-87
2022/01/08 06:23:09;;;;;;;1.35;0.57;;;4.10;97.20;;;;;;1675299;29;20451;-85
2022/01/08 06:24:01;;;;;;;0.80;0.70;;;4.20;97.20;;;;;;1675563;29;20214;-86
2022/01/08 06:24:52;;;;;;;1.30;0.82;;;4.20;97.20;;;;;;1675491;29;20217;-85
2022/01/08 06:25:44;;;;;;;0.80;0.60;;;4.20;97.20;;;;;;1675313;29;20288;-85
2022/01/08 06:26:35;;;;;;;1.52;0.75;;;4.10;97.20;;;;;;1675186;29;20206;-85
2022/01/08 06:27:26;;;;;;;1.50;0.80;;;4.10;97.20;;;;;;1675408;29;20213;-86
2022/01/08 06:28:17;;;;;;;2.05;1.13;;;4.10;97.20;;;;;;1674922;29;20261;-85
2022/01/08 06:29:09;;;;;;;1.27;0.80;;;4.10;97.20;;;;;;1675418;29;20206;-85
2022/01/08 06:30:00;;;;;;;0.95;0.80;;;4.10;97.20;;;;;;1675367;29;20210;-86
2022/01/08 06:30:53;;;;;;;1.00;0.73;;;4.10;97.20;;;;;;1675432;29;20320;-85
2022/01/08 06:31:45;;;;;;;0.70;0.60;;;4.10;97.20;;;;;;1674838;29;20206;-85
2022/01/08 06:32:36;;;;;;;1.42;0.65;;;4.10;97.20;;;;;;1670178;29;20218;-85
2022/01/08 06:33:27;;;;;;;1.02;0.65;;;4.10;97.20;;;;;;1675400;29;20665;-86
2022/01/08 06:34:19;;;;;;;0.93;0.70;;;4.10;97.20;;;;;;1671078;29;20636;-86
2022/01/08 06:35:10;;;;;;;1.50;0.82;;;4.00;97.20;;;;;;1675291;29;20249;-86
2022/01/08 06:36:02;;;;;;;0.73;0.70;;;4.00;97.20;;;;;;1674714;29;20214;-86
2022/01/08 06:36:53;;;;;;;2.15;0.80;;;4.00;97.20;;;;;;1675219;29;20458;-85
2022/01/08 06:37:44;;;;;;;0.80;0.70;;;4.00;97.20;;;;;;1675077;29;20209;-85
2022/01/08 06:38:35;;;;;;;0.85;0.68;;;4.00;97.20;;;;;;1675246;29;20213;-85
2022/01/08 06:39:27;;;;;;;0.80;0.60;;;4.00;97.20;;;;;;1675464;29;20209;-85
2022/01/08 06:40:17;;;;;;;1.00;0.70;;;4.10;97.20;;;;;;1675183;29;20584;-85
2022/01/08 06:41:09;;;;;;;1.00;0.70;;;4.10;97.20;;;;;;1675160;29;20198;-85
2022/01/08 06:42:00;;;;;;;0.70;0.60;;;4.10;97.20;;;;;;1674397;29;21022;-86
2022/01/08 06:42:52;;;;;;;1.17;0.70;;;4.10;97.20;;;;;;1674858;29;20237;-85
2022/01/08 06:43:43;;;;;;;0.95;0.60;;;4.10;97.20;;;;;;1673311;29;20229;-86
2022/01/08 06:44:34;;;;;;;0.90;0.70;;;4.10;97.20;;;;;;1675274;29;20216;-85
2022/01/08 06:45:26;;;;;;;0.80;0.80;;;4.10;97.20;;;;;;1674734;29;20955;-86
2022/01/08 06:46:17;;;;;;;0.70;0.70;;;4.10;97.20;;;;;;1674990;29;20213;-85
2022/01/08 06:47:09;;;;;;;0.80;0.60;;;4.10;97.20;;;;;;1675198;29;20301;-87
2022/01/08 06:48:01;;;;;;;0.80;0.70;;;4.10;97.20;;;;;;1675095;29;20610;-84
2022/01/08 06:48:52;;;;;;;0.98;0.85;;;4.10;97.20;;;;;;1675300;29;20255;-83
2022/01/08 06:49:43;;;;;;;1.03;0.70;;;4.10;97.20;;;;;;1675451;29;20205;-84
2022/01/08 06:50:34;;;;;;;1.42;0.90;;;4.10;97.20;;;;;;1675132;29;20268;-86
2022/01/08 06:51:26;;;;;;;0.73;0.70;;;4.10;97.20;;;;;;1674978;29;20209;-85
2022/01/08 06:52:17;;;;;;;1.38;0.77;;;4.10;97.20;;;;;;1674951;29;20206;-84
2022/01/08 06:53:08;;;;;;;2.00;0.70;;;4.10;97.20;;;;;;1675298;29;20202;-84
2022/01/08 06:53:59;;;;;;;1.45;0.80;;;4.20;97.20;;;;;;1675422;29;20210;-85
2022/01/08 06:54:51;;;;;;;1.00;0.80;;;4.20;97.20;;;;;;1676633;29;20209;-88
2022/01/08 06:55:42;;;;;;;1.33;0.93;;;4.20;97.20;;;;;;1676113;29;20580;-84
2022/01/08 06:56:34;;;;;;;1.03;0.93;;;4.20;97.20;;;;;;1675824;29;20636;-86
2022/01/08 06:57:24;;;;;;;0.90;0.90;;;4.20;97.20;;;;;;1676279;29;20206;-86
2022/01/08 06:58:16;;;;;;;1.00;0.90;;;4.20;97.20;;;;;;1675002;29;20206;-87
2022/01/08 06:59:07;;;;;;;1.00;0.82;;;4.20;97.20;;;;;;1675690;29;20454;-87
2022/01/08 07:00:00;;;;;;;1.23;0.80;;;4.20;97.20;;;;;;1674990;29;20202;-87
2022/01/08 07:00:51;;;;;;;1.50;1.13;;;4.20;97.20;;;;;;1676565;29;20233;-88
2022/01/08 07:01:42;;;;;;;2.03;1.10;;;4.10;97.20;;;;;;1677548;29;20261;-88
2022/01/08 07:02:35;;;;;;;1.77;0.90;;;4.10;97.20;;;;;;1678525;29;20210;-89
2022/01/08 07:03:26;;;;;;;1.55;0.90;;;4.10;97.20;;;;;;1678838;29;20234;-88
2022/01/08 07:04:17;;;;;;;1.52;1.15;;;4.10;97.20;;;;;;1678895;29;20209;-89
2022/01/08 07:05:10;;;;;;;1.40;0.90;;;4.10;97.20;;;;;;1678833;29;20254;-89
2022/01/08 07:06:01;;;;;;;2.22;0.95;;;4.10;97.20;;;;;;1679617;29;20209;-89
2022/01/08 07:06:52;;;;;;;0.90;0.70;;;4.10;97.20;;;;;;1679416;29;20210;-89
2022/01/08 07:07:43;;;;;;;1.20;0.90;;;4.10;97.20;;;;;;1677724;29;20206;-89
2022/01/08 07:08:35;;;;;;;1.63;0.90;;;4.10;97.20;;;;;;1677462;29;20253;-88
2022/01/08 07:09:26;;;;;;;1.00;0.90;;;4.10;97.20;;;;;;1677885;29;20212;-90
2022/01/08 07:10:17;;;;;;;1.10;0.90;;;4.00;97.20;;;;;;1676301;29;20228;-88
2022/01/08 07:11:09;;;;;;;1.50;1.40;;;4.00;97.20;;;;;;1680014;29;20461;-88
2022/01/08 07:12:01;;;;;;;2.08;1.60;;;4.00;97.20;;;;;;1676492;29;20297;-88
2022/01/08 07:12:52;;;;;;;1.92;1.35;;;4.00;97.20;;;;;;1676230;29;20213;-88
2022/01/08 07:13:44;;;;;;;1.23;1.10;;;4.00;97.20;;;;;;1676357;29;20220;-88
2022/01/08 07:14:35;;;;;;;1.90;1.10;;;4.00;97.20;;;;;;1680169;29;20661;-88
2022/01/08 07:15:27;;;;;;;1.35;1.00;;;4.00;97.20;;;;;;1682846;29;20677;-88
2022/01/08 07:16:18;;;;;;;1.60;1.10;;;4.00;97.20;;;;;;1681938;29;20209;-89
2022/01/08 07:17:09;;;;;;;2.13;1.97;;;4.00;97.20;;;;;;1676243;29;20194;-88
2022/01/08 07:18:01;;;;;;;3.45;2.03;;;4.00;97.20;;;;;;1675786;29;20206;-88
2022/01/08 07:18:53;;;;;;;2.05;1.80;;;4.00;97.20;;;;;;1681816;29;20817;-88
2022/01/08 07:19:44;;;;;;;1.77;1.63;;;4.00;97.20;;;;;;1683095;29;20221;-88
2022/01/08 07:20:36;;;;;;;2.30;1.70;;;4.00;97.20;;;;;;1682871;29;20225;-88
2022/01/08 07:21:26;;;;;;;2.38;1.52;;;4.00;97.20;;;;;;1683035;29;20209;-87
2022/01/08 07:22:18;;;;;;;2.13;1.77;;;4.00;97.20;;;;;;1682303;29;20695;-88
2022/01/08 07:23:09;;;;;;;3.20;2.10;;;4.00;97.20;;;;;;1677030;29;20214;-88
2022/01/08 07:24:00;;;;;;;3.37;2.83;;;4.00;97.20;;;;;;1676081;29;20202;-88
2022/01/08 07:24:51;;;;;;;2.78;2.50;;;4.00;97.20;;;;;;1677126;29;20205;-90
2022/01/08 07:25:43;;;;;;;2.73;2.50;;;4.00;97.20;;;;;;1676805;29;20216;-91
2022/01/08 07:26:34;;;;;;;3.05;2.72;;;4.00;97.20;;;;;;1681984;29;20197;-89
2022/01/08 07:27:30;;;;;;;1.57;1.10;;;4.00;97.20;;;;;;1676773;29;20262;-88
2022/01/08 07:28:20;;;;;;;7.30;1.65;;;4.00;97.20;;;;;;1676003;29;20498;-87
2022/01/08 07:29:12;;;;;;;3.37;1.87;;;4.00;97.20;;;;;;1680061;29;20205;-88
2022/01/08 07:30:05;;;;;;;2.47;2.28;;;4.00;97.20;;;;;;1682753;29;20205;-88
2022/01/08 07:30:57;;;;;;;2.97;2.38;;;4.00;97.20;;;;;;1682682;29;20235;-89
2022/01/08 07:31:47;;;;;;;3.85;2.28;;;4.00;97.20;;;;;;1683301;29;20209;-92
2022/01/08 07:32:43;;;;;;;2.03;1.87;;;4.00;97.20;;;;;;1684555;29;20276;-89
2022/01/08 07:33:35;;;;;;;2.80;1.80;;;4.10;97.20;;;;;;1678860;29;20198;-91
2022/01/08 07:34:27;;;;;;;2.22;1.90;;;4.10;97.20;;;;;;1678504;29;20234;-90
2022/01/08 07:35:21;;;;;;;2.60;1.50;;;4.10;97.20;;;;;;1676568;29;20214;-87
2022/01/08 07:36:13;;;;;;;2.83;1.95;;;4.10;97.20;;;;;;1675580;29;20349;-88
2022/01/08 07:37:04;;;;;;;3.63;2.40;;;4.10;97.20;;;;;;1676335;29;20606;-89
2022/01/08 07:37:55;;;;;;;1.73;1.63;;;4.10;97.20;;;;;;1675609;29;20693;-88
2022/01/08 07:38:46;;;;;;;3.05;2.22;;;4.10;97.20;;;;;;1675874;29;20303;-88
2022/01/08 07:39:38;;;;;;;1.83;1.73;;;4.10;97.20;;;;;;1676483;29;20206;-88
2022/01/08 07:40:29;;;;;;;2.78;1.80;;;4.10;97.20;;;;;;1679214;29;20946;-88
2022/01/08 07:41:20;;;;;;;2.07;1.90;;;4.10;97.20;;;;;;1676438;29;20221;-88
2022/01/08 07:42:11;;;;;;;2.00;1.70;;;4.10;97.20;;;;;;1676270;29;20213;-88
2022/01/08 07:43:04;;;;;;;3.20;2.20;;;4.10;97.20;;;;;;1676340;29;20194;-88
2022/01/08 07:43:55;;;;;;;2.20;1.67;;;4.10;97.20;;;;;;1676519;29;20209;-88
2022/01/08 07:44:46;;;;;;;2.27;2.07;;;4.00;97.20;;;;;;1676215;29;20280;-88
2022/01/08 07:45:37;;;;;;;2.05;1.85;;;4.10;97.20;;;;;;1676063;29;20588;-88
2022/01/08 07:46:29;;;;;;;2.07;1.43;;;4.10;97.20;;;;;;1675954;29;20578;-89
2022/01/08 07:47:20;;;;;;;2.67;2.10;;;4.10;97.20;;;;;;1675656;29;20483;-88
2022/01/08 07:48:12;;;;;;;2.00;1.80;;;4.10;97.20;;;;;;1676524;29;20204;-88
2022/01/08 07:49:04;;;;;;;2.20;1.70;;;4.10;97.20;;;;;;1677128;29;20450;-88
2022/01/08 07:49:56;;;;;;;1.45;1.35;;;4.00;97.20;;;;;;1677352;29;20217;-88
2022/01/08 07:50:47;;;;;;;1.92;1.73;;;4.00;97.20;;;;;;1677538;29;20229;-88
2022/01/08 07:51:38;;;;;;;4.60;1.60;;;4.00;97.20;;;;;;1678305;29;20201;-88
2022/01/08 07:52:29;;;;;;;4.07;1.70;;;4.00;97.20;;;;;;1677381;29;20459;-88
2022/01/08 07:53:21;;;;;;;2.30;1.90;;;4.00;97.20;;;;;;1676982;29;20288;-88
2022/01/08 07:54:12;;;;;;;3.50;2.05;;;4.00;97.20;;;;;;1676734;29;20221;-87
2022/01/08 07:55:04;;;;;;;2.53;2.33;;;3.90;97.20;;;;;;1676863;29;20204;-88
2022/01/08 07:55:55;;;;;;;3.50;2.13;;;3.90;97.20;;;;;;1677109;29;20225;-88
2022/01/08 07:56:47;;;;;;;2.30;2.10;;;3.90;97.20;;;;;;1677052;29;20201;-87
2022/01/08 07:57:38;;;;;;;3.40;2.20;;;4.00;97.20;;;;;;1676646;29;20206;-88
2022/01/08 07:58:30;;;;;;;4.03;2.95;;;4.00;97.20;;;;;;1677052;29;20271;-89
2022/01/08 07:59:20;;;;;;;2.92;2.60;;;4.00;97.20;;;;;;1676984;29;20795;-88
2022/01/08 08:00:13;;;;;;;2.80;2.23;;;4.00;97.20;;;;;;1676525;29;20201;-87
2022/01/08 08:01:03;;;;;;;2.50;2.10;;;4.00;97.20;;;;;;1676284;29;20218;-88
2022/01/08 08:01:55;;;;;;;3.30;2.43;;;4.00;97.20;;;;;;1676596;29;20289;-88
2022/01/08 08:02:46;;;;;;;3.38;2.10;;;4.00;97.20;;;;;;1676896;29;20213;-88
2022/01/08 08:03:37;;;;;;;3.37;2.40;;;4.00;97.20;;;;;;1676595;29;20200;-88
2022/01/08 08:04:30;;;;;;;2.55;2.35;;;4.00;97.20;;;;;;1676654;29;20217;-88
2022/01/08 08:05:21;;;;;;;3.08;2.88;;;4.00;97.20;;;;;;1676708;29;20224;-87
2022/01/08 08:06:12;;;;;;;3.13;2.38;;;4.00;97.20;;;;;;1676509;29;20217;-87
2022/01/08 08:07:04;;;;;;;3.80;3.20;;;4.00;97.20;;;;;;1676028;29;20288;-87
2022/01/08 08:07:55;;;;;;;4.18;3.28;;;4.00;97.20;;;;;;1675854;29;20485;-87
2022/01/08 08:08:47;;;;;;;3.30;2.63;;;4.00;97.20;;;;;;1675746;29;20239;-87
2022/01/08 08:09:38;;;;;;;3.05;2.78;;;4.00;97.20;;;;;;1676268;29;20678;-87
2022/01/08 08:10:29;;;;;;;2.93;2.60;;;4.00;97.20;;;;;;1677509;29;20662;-87
2022/01/08 08:11:20;;;;;;;3.05;2.35;;;4.00;97.20;;;;;;1676420;29;20201;-87
2022/01/08 08:12:12;;;;;;;2.47;2.27;;;4.00;97.20;;;;;;1676190;29;20217;-88
2022/01/08 08:13:02;;;;;;;4.57;2.20;;;4.00;97.20;;;;;;1680306;29;20225;-87
2022/01/08 08:13:54;;;;;;;3.63;2.37;;;4.00;97.20;;;;;;1676020;29;20205;-87
2022/01/08 08:14:45;;;;;;;2.85;2.65;;;4.00;97.20;;;;;;1676067;29;20663;-88
2022/01/08 08:15:37;;;;;;;3.33;2.30;;;4.00;97.20;;;;;;1676008;29;20618;-87
2022/01/08 08:16:27;;;;;;;5.32;3.20;;;4.00;97.20;;;;;;1676129;29;20697;-88
2022/01/08 08:17:19;;;;;;;2.40;2.20;;;4.00;97.20;;;;;;1676325;29;20569;-87
2022/01/08 08:18:10;;;;;;;3.78;2.30;;;4.00;97.20;;;;;;1676084;29;20206;-88
2022/01/08 08:19:02;;;;;;;2.53;1.98;;;4.00;97.20;;;;;;1676088;29;20206;-87
2022/01/08 08:19:55;;;;;;;2.60;2.40;;;4.00;97.20;;;;;;1676304;29;20237;-87
2022/01/08 08:20:47;;;;;;;4.43;2.70;;;4.00;97.20;;;;;;1676209;29;20612;-88
2022/01/08 08:21:38;;;;;;;3.60;2.60;;;4.00;97.20;;;;;;1675699;29;20209;-87
2022/01/08 08:22:29;;;;;;;4.10;2.80;;;4.00;97.20;;;;;;1675860;29;20212;-87
2022/01/08 08:23:20;;;;;;;2.60;2.40;;;4.00;97.20;;;;;;1675976;29;20276;-87
2022/01/08 08:24:14;;;;;;;3.03;2.63;;;4.10;97.20;;;;;;1675936;29;20206;-87
2022/01/08 08:25:06;;;;;;;3.60;3.00;;;4.10;97.20;;;;;;1679877;29;20213;-89
2022/01/08 08:25:58;;;;;;;3.42;3.08;;;4.00;97.20;;;;;;1680168;29;20304;-89
2022/01/08 08:26:49;;;;;;;5.30;3.00;;;4.10;97.20;;;;;;1679039;29;20232;-89
2022/01/08 08:27:41;;;;;;;4.10;2.83;;;4.00;97.20;;;;;;1680357;29;20241;-90
2022/01/08 08:28:31;;;;;;;3.33;2.50;;;4.00;97.20;;;;;;1680418;29;20201;-91
2022/01/08 08:29:23;;;;;;;3.43;3.00;;;4.00;97.20;;;;;;1679884;29;20261;-90
2022/01/08 08:30:14;;;;;;;4.10;3.17;;;4.00;97.20;;;;;;1679993;29;20451;-89
2022/01/08 08:31:06;;;;;;;3.40;2.93;;;4.00;97.20;;;;;;1679266;29;20623;-90
2022/01/08 08:31:56;;;;;;;2.78;2.58;;;4.00;97.20;;;;;;1674885;29;20206;-89
2022/01/08 08:32:48;;;;;;;3.40;3.10;;;4.00;97.20;;;;;;1675392;29;20206;-89
2022/01/08 08:33:40;;;;;;;3.33;3.00;;;4.00;97.20;;;;;;1675514;29;20206;-89
2022/01/08 08:34:31;;;;;;;4.82;3.40;;;4.00;97.20;;;;;;1675045;29;20206;-90
2022/01/08 08:35:24;;;;;;;4.47;3.03;;;4.00;97.20;;;;;;1678398;29;20199;-90
2022/01/08 08:36:16;;;;;;;5.65;3.55;;;4.00;97.20;;;;;;1687450;29;20216;-88
2022/01/08 08:37:06;;;;;;;3.47;3.10;;;4.10;97.20;;;;;;1683025;29;20216;-87
2022/01/08 08:37:58;;;;;;;3.47;3.17;;;4.10;97.20;;;;;;1680331;29;20206;-88
2022/01/08 08:38:49;;;;;;;3.63;3.15;;;4.10;97.20;;;;;;1678842;29;20591;-87
2022/01/08 08:39:41;;;;;;;6.00;3.37;;;4.20;97.20;;;;;;1678030;29;20220;-88
2022/01/08 08:40:31;;;;;;;3.40;2.95;;;4.10;97.20;;;;;;1679239;29;20475;-88
2022/01/08 08:41:23;;;;;;;4.10;3.00;;;4.10;97.20;;;;;;1677561;29;20293;-88
2022/01/08 08:42:14;;;;;;;5.80;3.30;;;4.10;97.20;;;;;;1676617;29;20507;-89
2022/01/08 08:43:06;;;;;;;5.45;3.30;;;4.10;97.20;;;;;;1676470;29;20205;-88
2022/01/08 08:43:57;;;;;;;3.30;2.70;;;4.10;97.20;;;;;;1676628;29;20674;-88
2022/01/08 08:44:48;;;;;;;4.37;2.87;;;4.10;97.20;;;;;;1676700;29;20578;-88
2022/01/08 08:45:40;;;;;;;3.45;3.00;;;4.10;97.20;;;;;;1676484;29;20494;-87
2022/01/08 08:46:31;;;;;;;3.03;2.72;;;4.10;97.20;;;;;;1676417;29;20210;-87
2022/01/08 08:47:22;;;;;;;5.10;2.75;;;4.20;97.20;;;;;;1676266;29;20237;-88
2022/01/08 08:48:15;;;;;;;3.30;2.50;;;4.30;97.20;;;;;;1675986;29;20202;-88
2022/01/08 08:49:06;;;;;;;3.35;2.80;;;4.30;97.20;;;;;;1676296;29;20233;-87
2022/01/08 08:49:58;;;;;;;3.40;2.70;;;4.30;97.20;;;;;;1676176;29;20209;-88
2022/01/08 08:50:50;;;;;;;3.55;2.67;;;4.40;97.20;;;;;;1676303;29;20236;-88
2022/01/08 08:51:42;;;;;;;3.17;2.30;;;4.40;97.20;;;;;;1676315;29;20221;-87
2022/01/08 08:52:33;;;;;;;3.15;2.80;;;4.40;97.20;;;;;;1676208;29;20634;-88
2022/01/08 08:53:25;;;;;;;3.22;2.58;;;4.40;97.20;;;;;;1676204;29;20262;-87
2022/01/08 08:54:15;;;;;;;2.95;2.03;;;4.50;97.20;;;;;;1676407;29;20594;-87
2022/01/08 08:55:08;;;;;;;4.20;2.17;;;4.40;97.20;;;;;;1676420;29;20661;-88
2022/01/08 08:55:59;;;;;;;2.20;2.00;;;4.40;97.20;;;;;;1676483;29;20249;-88
2022/01/08 08:56:51;;;;;;;2.30;1.70;;;4.40;97.20;;;;;;1676381;29;20202;-87
2022/01/08 08:57:41;;;;;;;3.05;2.75;;;4.40;97.20;;;;;;1676172;29;20225;-88
2022/01/08 08:58:33;;;;;;;2.87;2.40;;;4.40;97.20;;;;;;1675618;29;20284;-88
2022/01/08 08:59:24;;;;;;;2.67;1.95;;;4.30;97.20;;;;;;1675131;29;20229;-87
2022/01/08 09:00:16;;;;;;;2.00;1.80;;;4.30;97.20;;;;;;1675909;29;20692;-88
2022/01/08 09:01:07;;;;;;;2.47;2.13;;;4.30;97.20;;;;;;1675969;29;20217;-88
2022/01/08 09:01:59;;;;;;;2.10;1.90;;;4.30;97.20;;;;;;1675901;29;20216;-87
2022/01/08 09:02:50;;;;;;;2.30;2.10;;;4.30;97.20;;;;;;1676202;29;20216;-87
2022/01/08 09:03:41;;;;;;;3.97;2.40;;;4.20;97.20;;;;;;1675973;29;20214;-88
2022/01/08 09:04:33;;;;;;;2.00;1.75;;;4.20;97.20;;;;;;1676023;29;20710;-88
2022/01/08 09:05:24;;;;;;;2.50;1.65;;;4.20;97.20;;;;;;1675972;29;20217;-87
2022/01/08 09:06:18;;;;;;;2.90;1.63;;;4.20;97.20;;;;;;1675816;29;20233;-86
2022/01/08 09:07:09;;;;;;;2.22;2.00;;;4.20;97.20;;;;;;1675685;29;20494;-87
2022/01/08 09:08:03;;;;;;;2.33;1.70;;;4.20;97.20;;;;;;1675025;29;20214;-87
2022/01/08 09:08:54;;;;;;;2.08;1.98;;;4.10;97.20;;;;;;1669658;29;20590;-87
2022/01/08 09:09:46;;;;;;;2.27;1.90;;;4.10;97.20;;;;;;1675999;29;20260;-87
2022/01/08 09:10:37;;;;;;;2.25;2.05;;;4.10;97.20;;;;;;1675798;29;20658;-87
2022/01/08 09:11:29;;;;;;;2.63;2.03;;;4.10;97.20;;;;;;1675653;29;20202;-87
2022/01/08 09:12:20;;;;;;;2.28;2.05;;;4.10;97.20;;;;;;1675687;29;20481;-87
2022/01/08 09:13:12;;;;;;;2.42;1.90;;;4.10;97.20;;;;;;1675716;29;20205;-88
2022/01/08 09:14:03;;;;;;;2.45;2.25;;;4.10;97.20;;;;;;1675755;29;20588;-87
2022/01/08 09:14:54;;;;;;;3.83;2.37;;;4.10;97.20;;;;;;1675748;29;20202;-88
2022/01/08 09:15:45;;;;;;;2.22;1.95;;;4.10;97.20;;;;;;1669430;29;20214;-87
2022/01/08 09:16:37;;;;;;;2.30;2.10;;;4.10;97.20;;;;;;1670456;29;20270;-86
2022/01/08 09:17:28;;;;;;;4.05;2.00;;;4.10;97.20;;;;;;1669574;29;20207;-86
2022/01/08 09:18:20;;;;;;;2.17;1.95;;;4.10;97.20;;;;;;1668996;29;20202;-87
2022/01/08 09:19:11;;;;;;;2.50;2.30;;;4.20;97.20;;;;;;1669207;29;20248;-87
2022/01/08 09:20:04;;;;;;;3.73;1.80;;;4.20;97.20;;;;;;1669290;29;20210;-87
2022/01/08 09:20:55;;;;;;;2.45;2.10;;;4.20;97.20;;;;;;1669425;29;20241;-88
2022/01/08 09:21:49;;;;;;;3.43;2.20;;;4.20;97.20;;;;;;1669547;29;20285;-86
2022/01/08 09:22:40;;;;;;;3.55;2.10;;;4.20;97.20;;;;;;1669476;29;20211;-86
2022/01/08 09:23:33;;;;;;;2.10;1.90;;;4.30;97.20;;;;;;1669520;29;20211;-86
2022/01/08 09:24:23;;;;;;;2.45;1.90;;;4.30;97.20;;;;;;1669346;29;20456;-86
2022/01/08 09:25:15;;;;;;;2.67;1.97;;;4.30;97.20;;;;;;1672001;29;20198;-86
2022/01/08 09:26:06;;;;;;;2.22;2.03;;;4.30;97.20;;;;;;1675933;29;20233;-86
2022/01/08 09:26:58;;;;;;;1.80;1.70;;;4.30;97.20;;;;;;1675747;29;20202;-86
2022/01/08 09:27:49;;;;;;;2.90;1.95;;;4.40;97.20;;;;;;1676231;29;20213;-88
2022/01/08 09:28:41;;;;;;;2.97;2.10;;;4.40;97.20;;;;;;1676187;29;20206;-86
2022/01/08 09:29:33;;;;;;;2.97;2.00;;;4.50;97.20;;;;;;1675364;29;20664;-87
2022/01/08 09:30:25;;;;;;;2.28;1.70;;;4.50;97.20;;;;;;1675604;29;20293;-87
2022/01/08 09:31:18;;;;;;;2.60;1.63;;;4.50;97.20;;;;;;1675683;29;20248;-86
2022/01/08 09:32:10;;;;;;;3.67;2.22;;;4.50;97.20;;;;;;1675761;29;20258;-87
2022/01/08 09:33:02;;;;;;;1.83;1.52;;;4.50;97.20;;;;;;1675959;29;20214;-88
2022/01/08 09:33:54;;;;;;;2.35;1.75;;;4.50;97.20;;;;;;1676028;29;20206;-86
2022/01/08 09:34:45;;;;;;;3.50;2.05;;;4.50;97.20;;;;;;1673722;29;20206;-86
2022/01/08 09:35:37;;;;;;;2.33;1.80;;;4.50;97.20;;;;;;1675580;29;20220;-86
2022/01/08 09:36:28;;;;;;;2.47;2.28;;;4.50;97.20;;;;;;1675694;29;20673;-87
2022/01/08 09:37:21;;;;;;;4.95;2.50;;;4.50;97.20;;;;;;1675527;29;20588;-87
2022/01/08 09:38:12;;;;;;;2.47;2.28;;;4.60;97.20;;;;;;1675224;29;20693;-87
2022/01/08 09:39:05;;;;;;;2.47;1.90;;;4.60;97.20;;;;;;1675382;29;20623;-86
2022/01/08 09:39:56;;;;;;;2.55;1.73;;;4.60;97.20;;;;;;1675745;29;20462;-87
2022/01/08 09:40:48;;;;;;;3.93;2.40;;;4.70;97.20;;;;;;1676022;29;20226;-88
2022/01/08 09:41:38;;;;;;;3.63;2.17;;;4.70;97.20;;;;;;1676497;29;20233;-88
2022/01/08 09:42:30;;;;;;;4.20;2.53;;;4.70;97.20;;;;;;1676620;29;20684;-87
2022/01/08 09:43:21;;;;;;;4.63;2.70;;;4.80;97.20;;;;;;1675961;29;20222;-88
2022/01/08 09:44:13;;;;;;;2.05;1.85;;;4.80;97.20;;;;;;1675784;29;20194;-87
2022/01/08 09:45:05;;;;;;;2.67;2.47;;;4.80;97.20;;;;;;1676259;29;20237;-86
2022/01/08 09:45:56;;;;;;;3.25;2.35;;;4.90;97.20;;;;;;1675739;29;20201;-87
2022/01/08 09:46:47;;;;;;;3.00;2.20;;;4.90;97.20;;;;;;1675907;29;20343;-86
2022/01/08 09:47:39;;;;;;;2.40;2.00;;;4.90;97.20;;;;;;1675939;29;20351;-87
2022/01/08 09:48:30;;;;;;;2.22;2.03;;;4.90;97.20;;;;;;1675562;29;20455;-87
2022/01/08 09:49:21;;;;;;;3.37;2.03;;;4.90;97.20;;;;;;1676344;29;20749;-86
2022/01/08 09:50:12;;;;;;;3.47;2.25;;;4.90;97.20;;;;;;1676309;29;20458;-87
2022/01/08 09:51:04;;;;;;;2.08;1.88;;;4.90;97.20;;;;;;1677333;29;20210;-87
2022/01/08 09:51:55;;;;;;;3.67;2.20;;;4.80;97.20;;;;;;1675756;29;20242;-86
2022/01/08 09:52:53;;;;;;;2.63;2.27;;;4.80;97.20;;;;;;1675730;29;20202;-86
2022/01/08 09:53:45;;;;;;;3.35;2.20;;;4.80;97.20;;;;;;1675746;29;20210;-86
2022/01/08 09:54:37;;;;;;;2.78;1.83;;;4.80;97.20;;;;;;1675607;29;20209;-85
2022/01/08 09:55:29;;;;;;;3.28;1.83;;;4.80;97.20;;;;;;1676276;29;20213;-86
2022/01/08 09:56:21;;;;;;;3.38;2.20;;;4.70;97.20;;;;;;1676267;29;20206;-86
2022/01/08 09:57:12;;;;;;;3.72;2.30;;;4.80;97.20;;;;;;1675699;29;20213;-86
2022/01/08 09:58:04;;;;;;;5.63;2.30;;;4.80;97.20;;;;;;1676235;29;20289;-88
2022/01/08 09:58:56;;;;;;;4.05;2.38;;;4.80;97.20;;;;;;1678825;29;20213;-87
2022/01/08 09:59:47;;;;;;;2.47;2.00;;;4.80;97.20;;;;;;1676525;29;20221;-88
2022/01/08 10:00:39;;;;;;;3.17;2.58;;;4.80;97.20;;;;;;1676887;29;20234;-87
2022/01/08 10:01:33;;;;;;;3.10;2.00;;;4.80;97.20;;;;;;1677815;29;20194;-88
2022/01/08 10:02:25;;;;;;;3.83;2.70;;;4.80;97.20;;;;;;1677018;29;20206;-86
2022/01/08 10:03:20;;;;;;;4.97;2.47;;;4.80;97.20;;;;;;1679560;29;20683;-86
2022/01/08 10:04:24;;;;;;;4.07;2.15;;;4.80;97.20;;;;;;1669500;29;20219;-86
2022/01/08 10:05:16;;;;;;;2.50;2.15;;;4.80;97.20;;;;;;1673870;29;20245;-85
2022/01/08 10:06:08;;;;;;;2.20;2.00;;;4.80;97.20;;;;;;1676467;29;20220;-87
2022/01/08 10:07:17;;;;;;;5.63;2.40;;;4.70;97.20;;;;;;1675876;29;20210;-86
2022/01/08 10:08:13;;;;;;;2.35;1.70;;;4.70;97.20;;;;;;1676512;29;20198;-88
2022/01/08 10:09:05;;;;;;;4.07;1.95;;;4.70;97.20;;;;;;1676621;29;20198;-87
2022/01/08 10:10:10;;;;;;;3.53;2.03;;;4.60;97.20;;;;;;1677504;29;20275;-88
2022/01/08 10:11:06;;;;;;;3.47;1.90;;;4.60;97.20;;;;;;1677684;29;20209;-88
2022/01/08 10:11:58;;;;;;;3.88;2.13;;;4.60;97.20;;;;;;1677810;29;20230;-90
2022/01/08 10:12:53;;;;;;;2.28;2.08;;;4.60;97.20;;;;;;1676757;29;20239;-88
2022/01/08 10:13:47;;;;;;;4.07;2.42;;;4.60;97.20;;;;;;1676939;29;20206;-86
2022/01/08 10:17:13;;;;;;;2.22;1.95;;;4.50;97.20;;;;;;1676267;29;20249;-85
2022/01/08 10:17:14;;;;;;;4.22;2.60;;;4.50;97.20;;;;;;1675756;29;20209;-87
2022/01/08 10:18:06;;;;;;;4.55;2.60;;;4.50;97.20;;;;;;1676177;29;20226;-86
2022/01/08 10:18:57;;;;;;;4.45;2.25;;;4.60;97.20;;;;;;1675984;29;20241;-88
2022/01/08 10:19:49;;;;;;;4.23;2.33;;;4.60;97.20;;;;;;1677084;29;20201;-87
2022/01/08 10:20:40;;;;;;;4.15;2.55;;;4.60;97.20;;;;;;1676587;29;20849;-88
2022/01/08 10:21:34;;;;;;;3.97;2.35;;;4.70;97.20;;;;;;1676358;29;20918;-87
2022/01/08 10:22:25;;;;;;;5.40;2.25;;;4.70;97.20;;;;;;1676279;29;20206;-87
2022/01/08 10:23:20;;;;;;;3.90;2.00;;;4.70;97.20;;;;;;1676261;29;20209;-88
2022/01/08 10:24:11;;;;;;;2.38;2.03;;;4.70;97.20;;;;;;1676544;29;20237;-87
2022/01/08 10:25:11;;;;;;;5.13;1.93;;;4.70;97.20;;;;;;1676407;29;20198;-88
2022/01/08 10:26:03;;;;;;;5.82;2.15;;;4.70;97.20;;;;;;1677845;29;20455;-88
2022/01/08 10:27:03;;;;;;;2.88;2.00;;;4.70;97.20;;;;;;1679254;29;20238;-88
2022/01/08 10:27:54;;;;;;;4.13;1.98;;;4.80;97.20;;;;;;1679656;29;20205;-90
2022/01/08 10:28:48;;;;;;;1.70;1.57;;;4.80;97.20;;;;;;1679396;29;20288;-89
2022/01/08 10:29:39;;;;;;;3.10;1.65;;;4.80;97.20;;;;;;1678031;29;20256;-89
2022/01/08 10:30:31;;;;;;;3.00;1.80;;;4.80;97.20;;;;;;1677352;29;20233;-88
2022/01/08 10:31:24;;;;;;;2.60;1.75;;;4.80;97.20;;;;;;1677503;29;20237;-89
2022/01/08 10:32:25;;;;;;;3.28;1.73;;;4.80;97.20;;;;;;1676884;29;20473;-88
2022/01/08 10:33:22;;;;;;;2.97;1.55;;;4.80;97.20;;;;;;1680261;29;20210;-89
2022/01/08 10:34:15;;;;;;;1.95;1.40;;;4.80;97.20;;;;;;1680920;29;20233;-90
2022/01/08 10:35:07;;;;;;;2.47;1.80;;;4.80;97.20;;;;;;1678645;29;20237;-90
2022/01/08 10:35:58;;;;;;;4.05;1.63;;;4.80;97.20;;;;;;1678181;29;20209;-89